Startpagina
METAR-TAF:

METAR-TAF

Vliegvelden :

Luchthaven van Boedapest

Boedapest, Hongarije

breedte: 47-26N, lengte: 019-16E, hoogte: 151 m

Actueel weer

Dit bericht is 10 minuten geleden gemaakt, om 14:30 UTC
Wind 9 kt uit het oostnoordoosten
Temperatuur 10°C
Vochtigheid 50%
Druk 1031 hPa
Zicht 10 km of meer
geen wolken onder 1500 m en geen cumulonimbus

METAR: LHBP 161430Z 06009KT CAVOK 10/M00 Q1031 NOSIG

Tijdstip: 15:40 (14:40 UTC)

Verwachting

Dit bericht is 3 uur en het 25 minuten geleden gemaakt, om 11:15 UTC
Verwachting geldig van 16 om 12 UTC tot 17 om 12 UTC
Wind 12 kt uit het oostnoordoosten
Zicht 10 km of meer
geen wolken onder 1500 m en geen cumulonimbus
Wijzigt naar
van 16 om 16 UTC tot 16 om 18 UTC
Wind 6 kt uit het noordoosten
Wijzigt naar
van 17 om 08 UTC tot 17 om 10 UTC
Wind 10 kt uit het oostnoordoosten

TAF: LHBP 161115Z 1612/1712 06012KT CAVOK BECMG 1616/1618 04006KT BECMG 1708/1710 06010KT

Waarnemingen en weersverwachtingen van meer dan 4000 vliegvelden (METAR en TAF).

De beschikbare stations zijn de gele en rode punten op de kaart.

Ga met uw muis naar het station om de naam te zien.

Klik dan om waarnemingen en weersverwachtingen te zien.

kaart wijzigen: klik op de groene knoppen met een zwart kruis om in te zoomen, op de groene knop met een streepje om uit te zoomen of op de groene pijlen voor aangrenzende kaarten.


METAR-TAF: